sensor_id;sensor_type;location;lat;lon;timestamp;P1;durP1;ratioP1;P2;durP2;ratioP2
13311;SDS011;34033;48.672;9.376;2023-06-10T00:00:00;4.10;;;3.80;;
13311;SDS011;34033;48.672;9.376;2023-06-10T00:02:26;4.47;;;4.07;;
13311;SDS011;34033;48.672;9.376;2023-06-10T00:04:52;7.70;;;4.10;;
13311;SDS011;34033;48.672;9.376;2023-06-10T00:07:17;4.80;;;3.80;;
13311;SDS011;34033;48.672;9.376;2023-06-10T00:09:43;4.60;;;4.20;;
13311;SDS011;34033;48.672;9.376;2023-06-10T00:12:08;6.10;;;4.30;;
13311;SDS011;34033;48.672;9.376;2023-06-10T00:14:37;4.67;;;3.90;;
13311;SDS011;34033;48.672;9.376;2023-06-10T00:17:05;5.63;;;4.70;;
13311;SDS011;34033;48.672;9.376;2023-06-10T00:19:35;4.80;;;4.37;;
13311;SDS011;34033;48.672;9.376;2023-06-10T00:22:06;4.53;;;4.10;;
13311;SDS011;34033;48.672;9.376;2023-06-10T00:24:32;4.90;;;4.13;;
13311;SDS011;34033;48.672;9.376;2023-06-10T00:26:57;4.57;;;4.20;;
13311;SDS011;34033;48.672;9.376;2023-06-10T00:29:23;4.73;;;4.33;;
13311;SDS011;34033;48.672;9.376;2023-06-10T00:31:48;4.83;;;4.13;;
13311;SDS011;34033;48.672;9.376;2023-06-10T00:34:13;4.93;;;4.43;;
13311;SDS011;34033;48.672;9.376;2023-06-10T00:36:39;4.53;;;4.13;;
13311;SDS011;34033;48.672;9.376;2023-06-10T00:39:04;5.20;;;4.20;;
13311;SDS011;34033;48.672;9.376;2023-06-10T00:41:29;4.50;;;4.07;;
13311;SDS011;34033;48.672;9.376;2023-06-10T00:43:55;4.60;;;4.20;;
13311;SDS011;34033;48.672;9.376;2023-06-10T00:46:21;5.13;;;4.63;;
13311;SDS011;34033;48.672;9.376;2023-06-10T00:48:48;5.03;;;4.10;;
13311;SDS011;34033;48.672;9.376;2023-06-10T00:51:15;4.60;;;4.20;;
13311;SDS011;34033;48.672;9.376;2023-06-10T00:53:41;4.73;;;4.33;;
13311;SDS011;34033;48.672;9.376;2023-06-10T00:56:07;4.47;;;4.07;;
13311;SDS011;34033;48.672;9.376;2023-06-10T00:58:33;4.57;;;4.13;;
13311;SDS011;34033;48.672;9.376;2023-06-10T01:00:58;4.97;;;4.50;;
13311;SDS011;34033;48.672;9.376;2023-06-10T01:03:24;5.63;;;4.10;;
13311;SDS011;34033;48.672;9.376;2023-06-10T01:05:52;4.30;;;3.90;;
13311;SDS011;34033;48.672;9.376;2023-06-10T01:11:08;4.57;;;4.17;;
13311;SDS011;34033;48.672;9.376;2023-06-10T01:13:43;4.47;;;4.10;;
13311;SDS011;34033;48.672;9.376;2023-06-10T01:16:10;4.67;;;4.13;;
13311;SDS011;34033;48.672;9.376;2023-06-10T01:18:36;4.10;;;3.73;;
13311;SDS011;34033;48.672;9.376;2023-06-10T01:21:03;4.43;;;4.03;;
13311;SDS011;34033;48.672;9.376;2023-06-10T01:23:29;4.17;;;3.87;;
13311;SDS011;34033;48.672;9.376;2023-06-10T01:26:00;4.43;;;4.03;;
13311;SDS011;34033;48.672;9.376;2023-06-10T01:30:58;4.40;;;4.00;;
13311;SDS011;34033;48.672;9.376;2023-06-10T01:33:27;4.40;;;4.00;;
13311;SDS011;34033;48.672;9.376;2023-06-10T01:35:55;4.13;;;3.83;;
13311;SDS011;34033;48.672;9.376;2023-06-10T01:38:22;4.80;;;4.40;;
13311;SDS011;34033;48.672;9.376;2023-06-10T01:40:50;5.00;;;4.07;;
13311;SDS011;34033;48.672;9.376;2023-06-10T01:43:18;3.97;;;3.67;;
13311;SDS011;34033;48.672;9.376;2023-06-10T01:45:45;6.00;;;4.63;;
13311;SDS011;34033;48.672;9.376;2023-06-10T01:48:10;4.30;;;3.90;;
13311;SDS011;34033;48.672;9.376;2023-06-10T01:50:36;4.33;;;3.93;;
13311;SDS011;34033;48.672;9.376;2023-06-10T01:53:01;4.50;;;4.10;;
13311;SDS011;34033;48.672;9.376;2023-06-10T01:55:27;4.67;;;4.27;;
13311;SDS011;34033;48.672;9.376;2023-06-10T01:57:52;3.97;;;3.67;;
13311;SDS011;34033;48.672;9.376;2023-06-10T02:00:17;4.00;;;3.70;;
13311;SDS011;34033;48.672;9.376;2023-06-10T02:02:43;5.60;;;4.60;;
13311;SDS011;34033;48.672;9.376;2023-06-10T02:05:20;4.47;;;4.07;;
13311;SDS011;34033;48.672;9.376;2023-06-10T02:07:46;4.47;;;3.73;;
13311;SDS011;34033;48.672;9.376;2023-06-10T02:10:11;4.80;;;4.30;;
13311;SDS011;34033;48.672;9.376;2023-06-10T02:12:36;4.43;;;4.03;;
13311;SDS011;34033;48.672;9.376;2023-06-10T02:15:02;4.30;;;4.00;;
13311;SDS011;34033;48.672;9.376;2023-06-10T02:17:27;6.07;;;4.17;;
13311;SDS011;34033;48.672;9.376;2023-06-10T02:19:54;4.70;;;4.30;;
13311;SDS011;34033;48.672;9.376;2023-06-10T02:22:20;4.20;;;3.90;;
13311;SDS011;34033;48.672;9.376;2023-06-10T02:24:46;6.20;;;4.20;;
13311;SDS011;34033;48.672;9.376;2023-06-10T02:27:11;4.07;;;3.77;;
13311;SDS011;34033;48.672;9.376;2023-06-10T02:29:36;7.10;;;4.30;;
13311;SDS011;34033;48.672;9.376;2023-06-10T02:32:02;5.67;;;4.43;;
13311;SDS011;34033;48.672;9.376;2023-06-10T02:34:28;6.67;;;4.43;;
13311;SDS011;34033;48.672;9.376;2023-06-10T02:36:54;14.40;;;4.10;;
13311;SDS011;34033;48.672;9.376;2023-06-10T02:39:21;4.77;;;4.27;;
13311;SDS011;34033;48.672;9.376;2023-06-10T02:41:46;6.13;;;4.30;;
13311;SDS011;34033;48.672;9.376;2023-06-10T02:44:12;4.93;;;4.30;;
13311;SDS011;34033;48.672;9.376;2023-06-10T02:46:37;7.97;;;4.73;;
13311;SDS011;34033;48.672;9.376;2023-06-10T02:49:02;6.67;;;4.70;;
13311;SDS011;34033;48.672;9.376;2023-06-10T02:51:28;6.40;;;4.70;;
13311;SDS011;34033;48.672;9.376;2023-06-10T02:53:53;5.20;;;4.10;;
13311;SDS011;34033;48.672;9.376;2023-06-10T02:56:19;4.73;;;4.17;;
13311;SDS011;34033;48.672;9.376;2023-06-10T02:58:45;5.83;;;4.30;;
13311;SDS011;34033;48.672;9.376;2023-06-10T03:01:10;9.67;;;4.57;;
13311;SDS011;34033;48.672;9.376;2023-06-10T03:03:36;9.53;;;4.80;;
13311;SDS011;34033;48.672;9.376;2023-06-10T03:06:05;6.50;;;4.53;;
13311;SDS011;34033;48.672;9.376;2023-06-10T03:08:31;9.03;;;4.73;;
13311;SDS011;34033;48.672;9.376;2023-06-10T03:10:56;5.97;;;4.17;;
13311;SDS011;34033;48.672;9.376;2023-06-10T03:13:21;5.47;;;4.10;;
13311;SDS011;34033;48.672;9.376;2023-06-10T03:15:47;6.67;;;4.53;;
13311;SDS011;34033;48.672;9.376;2023-06-10T03:18:12;6.80;;;4.23;;
13311;SDS011;34033;48.672;9.376;2023-06-10T03:20:37;5.73;;;3.97;;
13311;SDS011;34033;48.672;9.376;2023-06-10T03:23:04;5.07;;;4.10;;
13311;SDS011;34033;48.672;9.376;2023-06-10T03:25:31;5.10;;;4.43;;
13311;SDS011;34033;48.672;9.376;2023-06-10T03:27:57;4.97;;;4.57;;
13311;SDS011;34033;48.672;9.376;2023-06-10T03:30:22;4.70;;;3.87;;
13311;SDS011;34033;48.672;9.376;2023-06-10T03:32:48;4.60;;;4.13;;
13311;SDS011;34033;48.672;9.376;2023-06-10T03:35:14;5.67;;;4.40;;
13311;SDS011;34033;48.672;9.376;2023-06-10T03:37:39;4.20;;;3.90;;
13311;SDS011;34033;48.672;9.376;2023-06-10T03:40:05;4.70;;;4.20;;
13311;SDS011;34033;48.672;9.376;2023-06-10T03:42:32;6.10;;;4.30;;
13311;SDS011;34033;48.672;9.376;2023-06-10T03:44:57;5.37;;;4.17;;
13311;SDS011;34033;48.672;9.376;2023-06-10T03:47:23;6.20;;;4.10;;
13311;SDS011;34033;48.672;9.376;2023-06-10T03:49:48;5.27;;;4.43;;
13311;SDS011;34033;48.672;9.376;2023-06-10T03:52:13;4.50;;;3.97;;
13311;SDS011;34033;48.672;9.376;2023-06-10T03:54:39;4.73;;;4.27;;
13311;SDS011;34033;48.672;9.376;2023-06-10T03:57:04;5.80;;;4.37;;
13311;SDS011;34033;48.672;9.376;2023-06-10T03:59:31;5.53;;;4.27;;
13311;SDS011;34033;48.672;9.376;2023-06-10T04:01:56;4.63;;;4.23;;
13311;SDS011;34033;48.672;9.376;2023-06-10T04:04:22;6.60;;;4.20;;
13311;SDS011;34033;48.672;9.376;2023-06-10T04:06:48;6.47;;;4.30;;
13311;SDS011;34033;48.672;9.376;2023-06-10T04:09:14;4.43;;;4.03;;
13311;SDS011;34033;48.672;9.376;2023-06-10T04:11:41;7.33;;;3.97;;
13311;SDS011;34033;48.672;9.376;2023-06-10T04:14:06;5.00;;;4.40;;
13311;SDS011;34033;48.672;9.376;2023-06-10T04:16:33;5.00;;;4.20;;
13311;SDS011;34033;48.672;9.376;2023-06-10T04:18:58;8.73;;;4.40;;
13311;SDS011;34033;48.672;9.376;2023-06-10T04:21:25;4.57;;;4.00;;
13311;SDS011;34033;48.672;9.376;2023-06-10T04:23:51;4.40;;;4.00;;
13311;SDS011;34033;48.672;9.376;2023-06-10T04:26:16;4.30;;;4.00;;
13311;SDS011;34033;48.672;9.376;2023-06-10T04:28:42;4.33;;;4.00;;
13311;SDS011;34033;48.672;9.376;2023-06-10T04:31:08;5.37;;;4.23;;
13311;SDS011;34033;48.672;9.376;2023-06-10T04:33:34;6.10;;;4.17;;
13311;SDS011;34033;48.672;9.376;2023-06-10T04:35:59;4.20;;;3.90;;
13311;SDS011;34033;48.672;9.376;2023-06-10T04:38:24;4.33;;;3.93;;
13311;SDS011;34033;48.672;9.376;2023-06-10T04:40:50;5.53;;;3.90;;
13311;SDS011;34033;48.672;9.376;2023-06-10T04:43:15;5.73;;;4.00;;
13311;SDS011;34033;48.672;9.376;2023-06-10T04:45:41;4.03;;;3.73;;
13311;SDS011;34033;48.672;9.376;2023-06-10T04:48:09;4.67;;;4.00;;
13311;SDS011;34033;48.672;9.376;2023-06-10T04:50:35;4.27;;;3.90;;
13311;SDS011;34033;48.672;9.376;2023-06-10T04:53:01;4.43;;;4.03;;
13311;SDS011;34033;48.672;9.376;2023-06-10T04:55:26;4.57;;;4.13;;
13311;SDS011;34033;48.672;9.376;2023-06-10T04:57:51;5.53;;;4.23;;
13311;SDS011;34033;48.672;9.376;2023-06-10T05:00:18;4.43;;;4.03;;
13311;SDS011;34033;48.672;9.376;2023-06-10T05:02:43;5.07;;;4.23;;
13311;SDS011;34033;48.672;9.376;2023-06-10T05:05:09;5.83;;;3.80;;
13311;SDS011;34033;48.672;9.376;2023-06-10T05:07:35;5.10;;;4.30;;
13311;SDS011;34033;48.672;9.376;2023-06-10T05:10:00;4.40;;;4.00;;
13311;SDS011;34033;48.672;9.376;2023-06-10T05:12:26;5.33;;;4.10;;
13311;SDS011;34033;48.672;9.376;2023-06-10T05:14:51;3.90;;;3.60;;
13311;SDS011;34033;48.672;9.376;2023-06-10T05:17:17;4.40;;;4.00;;
13311;SDS011;34033;48.672;9.376;2023-06-10T05:19:42;4.60;;;4.20;;
13311;SDS011;34033;48.672;9.376;2023-06-10T05:22:08;5.33;;;4.27;;
13311;SDS011;34033;48.672;9.376;2023-06-10T05:24:34;4.43;;;4.03;;
13311;SDS011;34033;48.672;9.376;2023-06-10T05:26:59;4.47;;;4.07;;
13311;SDS011;34033;48.672;9.376;2023-06-10T05:29:25;5.90;;;3.87;;
13311;SDS011;34033;48.672;9.376;2023-06-10T05:31:50;4.03;;;3.63;;
13311;SDS011;34033;48.672;9.376;2023-06-10T05:34:16;6.20;;;4.07;;
13311;SDS011;34033;48.672;9.376;2023-06-10T05:36:41;5.67;;;3.77;;
13311;SDS011;34033;48.672;9.376;2023-06-10T05:39:07;5.57;;;3.83;;
13311;SDS011;34033;48.672;9.376;2023-06-10T05:41:32;4.00;;;3.57;;
13311;SDS011;34033;48.672;9.376;2023-06-10T05:43:58;4.00;;;3.47;;
13311;SDS011;34033;48.672;9.376;2023-06-10T05:46:23;3.70;;;3.40;;
13311;SDS011;34033;48.672;9.376;2023-06-10T05:48:49;3.90;;;3.60;;
13311;SDS011;34033;48.672;9.376;2023-06-10T05:51:14;3.83;;;3.53;;
13311;SDS011;34033;48.672;9.376;2023-06-10T05:53:39;3.87;;;3.53;;
13311;SDS011;34033;48.672;9.376;2023-06-10T05:56:05;3.57;;;3.30;;
13311;SDS011;34033;48.672;9.376;2023-06-10T05:58:30;4.20;;;3.80;;
13311;SDS011;34033;48.672;9.376;2023-06-10T06:00:55;3.70;;;3.40;;
13311;SDS011;34033;48.672;9.376;2023-06-10T06:03:21;4.70;;;3.27;;
13311;SDS011;34033;48.672;9.376;2023-06-10T06:05:46;3.77;;;3.47;;
13311;SDS011;34033;48.672;9.376;2023-06-10T06:08:12;5.23;;;3.70;;
13311;SDS011;34033;48.672;9.376;2023-06-10T06:10:38;3.63;;;3.33;;
13311;SDS011;34033;48.672;9.376;2023-06-10T06:13:04;4.63;;;3.20;;
13311;SDS011;34033;48.672;9.376;2023-06-10T06:15:29;4.30;;;3.90;;
13311;SDS011;34033;48.672;9.376;2023-06-10T06:17:55;4.37;;;4.00;;
13311;SDS011;34033;48.672;9.376;2023-06-10T06:20:21;4.00;;;3.70;;
13311;SDS011;34033;48.672;9.376;2023-06-10T06:22:47;4.00;;;3.60;;
13311;SDS011;34033;48.672;9.376;2023-06-10T06:25:12;4.27;;;3.60;;
13311;SDS011;34033;48.672;9.376;2023-06-10T06:27:38;3.80;;;3.50;;
13311;SDS011;34033;48.672;9.376;2023-06-10T06:30:04;3.80;;;3.50;;
13311;SDS011;34033;48.672;9.376;2023-06-10T06:32:30;3.90;;;3.50;;
13311;SDS011;34033;48.672;9.376;2023-06-10T06:34:55;3.87;;;3.57;;
13311;SDS011;34033;48.672;9.376;2023-06-10T06:37:23;4.23;;;3.83;;
13311;SDS011;34033;48.672;9.376;2023-06-10T06:39:50;3.73;;;3.40;;
13311;SDS011;34033;48.672;9.376;2023-06-10T06:42:16;3.87;;;3.57;;
13311;SDS011;34033;48.672;9.376;2023-06-10T06:44:41;4.07;;;3.70;;
13311;SDS011;34033;48.672;9.376;2023-06-10T06:47:07;3.50;;;3.30;;
13311;SDS011;34033;48.672;9.376;2023-06-10T06:49:32;3.60;;;3.30;;
13311;SDS011;34033;48.672;9.376;2023-06-10T06:51:58;3.60;;;3.30;;
13311;SDS011;34033;48.672;9.376;2023-06-10T06:54:23;3.50;;;3.27;;
13311;SDS011;34033;48.672;9.376;2023-06-10T06:56:48;5.77;;;3.27;;
13311;SDS011;34033;48.672;9.376;2023-06-10T06:59:13;2.93;;;2.73;;
13311;SDS011;34033;48.672;9.376;2023-06-10T07:01:39;3.30;;;3.00;;
13311;SDS011;34033;48.672;9.376;2023-06-10T07:04:05;3.60;;;3.30;;
13311;SDS011;34033;48.672;9.376;2023-06-10T07:06:30;3.57;;;3.27;;
13311;SDS011;34033;48.672;9.376;2023-06-10T07:08:56;6.00;;;3.60;;
13311;SDS011;34033;48.672;9.376;2023-06-10T07:11:21;5.47;;;4.07;;
13311;SDS011;34033;48.672;9.376;2023-06-10T07:13:47;8.93;;;4.60;;
13311;SDS011;34033;48.672;9.376;2023-06-10T07:16:12;7.43;;;4.10;;
13311;SDS011;34033;48.672;9.376;2023-06-10T07:18:37;4.30;;;3.90;;
13311;SDS011;34033;48.672;9.376;2023-06-10T07:21:03;7.63;;;4.47;;
13311;SDS011;34033;48.672;9.376;2023-06-10T07:23:28;10.03;;;4.63;;
13311;SDS011;34033;48.672;9.376;2023-06-10T07:25:53;4.20;;;3.90;;
13311;SDS011;34033;48.672;9.376;2023-06-10T07:28:19;6.23;;;3.37;;
13311;SDS011;34033;48.672;9.376;2023-06-10T07:30:44;4.67;;;3.60;;
13311;SDS011;34033;48.672;9.376;2023-06-10T07:33:10;5.57;;;3.40;;
13311;SDS011;34033;48.672;9.376;2023-06-10T07:35:36;8.87;;;4.43;;
13311;SDS011;34033;48.672;9.376;2023-06-10T07:38:01;4.50;;;3.67;;
13311;SDS011;34033;48.672;9.376;2023-06-10T07:40:26;3.93;;;3.57;;
13311;SDS011;34033;48.672;9.376;2023-06-10T07:42:52;3.43;;;3.13;;
13311;SDS011;34033;48.672;9.376;2023-06-10T07:45:18;4.23;;;3.77;;
13311;SDS011;34033;48.672;9.376;2023-06-10T07:47:43;4.27;;;3.30;;
13311;SDS011;34033;48.672;9.376;2023-06-10T07:50:09;4.03;;;3.40;;
13311;SDS011;34033;48.672;9.376;2023-06-10T07:52:35;3.27;;;3.07;;
13311;SDS011;34033;48.672;9.376;2023-06-10T07:55:00;3.80;;;3.47;;
13311;SDS011;34033;48.672;9.376;2023-06-10T07:57:25;3.23;;;2.90;;
13311;SDS011;34033;48.672;9.376;2023-06-10T07:59:51;3.20;;;2.97;;
13311;SDS011;34033;48.672;9.376;2023-06-10T08:02:16;3.10;;;2.80;;
13311;SDS011;34033;48.672;9.376;2023-06-10T08:04:41;3.67;;;3.37;;
13311;SDS011;34033;48.672;9.376;2023-06-10T08:07:07;2.90;;;2.70;;
13311;SDS011;34033;48.672;9.376;2023-06-10T08:09:32;3.03;;;2.83;;
13311;SDS011;34033;48.672;9.376;2023-06-10T08:11:57;3.20;;;2.90;;
13311;SDS011;34033;48.672;9.376;2023-06-10T08:14:23;3.03;;;2.80;;
13311;SDS011;34033;48.672;9.376;2023-06-10T08:16:48;3.20;;;3.00;;
13311;SDS011;34033;48.672;9.376;2023-06-10T08:19:14;3.70;;;3.10;;
13311;SDS011;34033;48.672;9.376;2023-06-10T08:21:39;2.80;;;2.60;;
13311;SDS011;34033;48.672;9.376;2023-06-10T08:24:08;3.80;;;3.30;;
13311;SDS011;34033;48.672;9.376;2023-06-10T08:26:34;2.87;;;2.67;;
13311;SDS011;34033;48.672;9.376;2023-06-10T08:29:00;2.93;;;2.73;;
13311;SDS011;34033;48.672;9.376;2023-06-10T08:31:25;2.80;;;2.60;;
13311;SDS011;34033;48.672;9.376;2023-06-10T08:33:51;3.50;;;3.20;;
13311;SDS011;34033;48.672;9.376;2023-06-10T08:36:16;3.03;;;2.83;;
13311;SDS011;34033;48.672;9.376;2023-06-10T08:38:41;3.63;;;3.03;;
13311;SDS011;34033;48.672;9.376;2023-06-10T08:41:07;3.40;;;3.10;;
13311;SDS011;34033;48.672;9.376;2023-06-10T08:43:45;3.33;;;3.07;;
13311;SDS011;34033;48.672;9.376;2023-06-10T08:46:16;3.43;;;3.17;;
13311;SDS011;34033;48.672;9.376;2023-06-10T08:48:43;3.00;;;2.80;;
13311;SDS011;34033;48.672;9.376;2023-06-10T08:51:11;3.00;;;2.80;;
13311;SDS011;34033;48.672;9.376;2023-06-10T08:53:48;3.00;;;2.80;;
13311;SDS011;34033;48.672;9.376;2023-06-10T08:56:18;3.97;;;2.90;;
13311;SDS011;34033;48.672;9.376;2023-06-10T08:58:45;2.80;;;2.70;;
13311;SDS011;34033;48.672;9.376;2023-06-10T09:01:11;2.87;;;2.67;;
13311;SDS011;34033;48.672;9.376;2023-06-10T09:03:37;3.00;;;2.80;;
13311;SDS011;34033;48.672;9.376;2023-06-10T09:06:05;3.10;;;2.87;;
13311;SDS011;34033;48.672;9.376;2023-06-10T09:08:32;3.40;;;3.17;;
13311;SDS011;34033;48.672;9.376;2023-06-10T09:10:59;3.63;;;3.33;;
13311;SDS011;34033;48.672;9.376;2023-06-10T09:13:25;3.00;;;2.80;;
13311;SDS011;34033;48.672;9.376;2023-06-10T09:15:51;4.47;;;2.73;;
13311;SDS011;34033;48.672;9.376;2023-06-10T09:18:16;2.90;;;2.70;;
13311;SDS011;34033;48.672;9.376;2023-06-10T09:20:42;2.80;;;2.60;;
13311;SDS011;34033;48.672;9.376;2023-06-10T09:23:08;3.10;;;2.90;;
13311;SDS011;34033;48.672;9.376;2023-06-10T09:25:35;3.20;;;2.90;;
13311;SDS011;34033;48.672;9.376;2023-06-10T09:28:02;4.13;;;2.90;;
13311;SDS011;34033;48.672;9.376;2023-06-10T09:30:29;2.97;;;2.70;;
13311;SDS011;34033;48.672;9.376;2023-06-10T09:32:57;2.73;;;2.53;;
13311;SDS011;34033;48.672;9.376;2023-06-10T09:35:27;3.10;;;2.90;;
13311;SDS011;34033;48.672;9.376;2023-06-10T09:37:55;3.00;;;2.80;;
13311;SDS011;34033;48.672;9.376;2023-06-10T09:40:22;2.80;;;2.60;;
13311;SDS011;34033;48.672;9.376;2023-06-10T09:42:55;3.00;;;2.80;;
13311;SDS011;34033;48.672;9.376;2023-06-10T09:45:21;2.60;;;2.50;;
13311;SDS011;34033;48.672;9.376;2023-06-10T09:47:47;3.40;;;2.70;;
13311;SDS011;34033;48.672;9.376;2023-06-10T09:50:16;2.63;;;2.50;;
13311;SDS011;34033;48.672;9.376;2023-06-10T09:52:42;2.70;;;2.50;;
13311;SDS011;34033;48.672;9.376;2023-06-10T09:55:08;2.97;;;2.50;;
13311;SDS011;34033;48.672;9.376;2023-06-10T09:57:35;2.70;;;2.50;;
13311;SDS011;34033;48.672;9.376;2023-06-10T10:00:19;2.80;;;2.60;;
13311;SDS011;34033;48.672;9.376;2023-06-10T10:02:51;2.73;;;2.60;;
13311;SDS011;34033;48.672;9.376;2023-06-10T10:05:18;3.00;;;2.80;;
13311;SDS011;34033;48.672;9.376;2023-06-10T10:07:46;2.90;;;2.70;;
13311;SDS011;34033;48.672;9.376;2023-06-10T10:10:13;2.77;;;2.60;;
13311;SDS011;34033;48.672;9.376;2023-06-10T10:12:40;2.40;;;2.30;;
13311;SDS011;34033;48.672;9.376;2023-06-10T10:15:06;2.70;;;2.50;;
13311;SDS011;34033;48.672;9.376;2023-06-10T10:17:34;3.63;;;2.70;;
13311;SDS011;34033;48.672;9.376;2023-06-10T10:20:04;2.60;;;2.40;;
13311;SDS011;34033;48.672;9.376;2023-06-10T10:22:37;2.60;;;2.50;;
13311;SDS011;34033;48.672;9.376;2023-06-10T10:25:05;2.20;;;2.10;;
13311;SDS011;34033;48.672;9.376;2023-06-10T10:27:36;2.67;;;2.47;;
13311;SDS011;34033;48.672;9.376;2023-06-10T10:30:08;3.40;;;2.50;;
13311;SDS011;34033;48.672;9.376;2023-06-10T10:32:51;2.60;;;2.50;;
13311;SDS011;34033;48.672;9.376;2023-06-10T10:35:30;2.87;;;2.63;;
13311;SDS011;34033;48.672;9.376;2023-06-10T10:37:58;2.77;;;2.50;;
13311;SDS011;34033;48.672;9.376;2023-06-10T10:40:24;2.43;;;2.33;;
13311;SDS011;34033;48.672;9.376;2023-06-10T10:42:54;2.53;;;2.43;;
13311;SDS011;34033;48.672;9.376;2023-06-10T10:45:21;2.80;;;2.60;;
13311;SDS011;34033;48.672;9.376;2023-06-10T10:47:48;2.60;;;2.50;;
13311;SDS011;34033;48.672;9.376;2023-06-10T10:50:18;2.53;;;2.33;;
13311;SDS011;34033;48.672;9.376;2023-06-10T10:55:22;2.47;;;2.37;;
13311;SDS011;34033;48.672;9.376;2023-06-10T10:57:55;2.90;;;2.67;;
13311;SDS011;34033;48.672;9.376;2023-06-10T11:00:26;2.97;;;2.67;;
13311;SDS011;34033;48.672;9.376;2023-06-10T11:05:41;5.07;;;2.70;;
13311;SDS011;34033;48.672;9.376;2023-06-10T11:08:09;2.27;;;2.07;;
13311;SDS011;34033;48.672;9.376;2023-06-10T11:13:23;2.30;;;2.20;;
13311;SDS011;34033;48.672;9.376;2023-06-10T11:15:51;2.43;;;2.33;;
13311;SDS011;34033;48.672;9.376;2023-06-10T11:18:24;6.53;;;2.47;;
13311;SDS011;34033;48.672;9.376;2023-06-10T11:31:28;2.70;;;2.50;;
13311;SDS011;34033;48.672;9.376;2023-06-10T11:33:56;2.42;;;2.22;;
13311;SDS011;34033;48.672;9.376;2023-06-10T11:36:26;2.15;;;2.05;;
13311;SDS011;34033;48.672;9.376;2023-06-10T11:38:59;2.50;;;2.30;;
13311;SDS011;34033;48.672;9.376;2023-06-10T11:41:26;2.53;;;2.40;;
13311;SDS011;34033;48.672;9.376;2023-06-10T11:43:53;2.28;;;2.17;;
13311;SDS011;34033;48.672;9.376;2023-06-10T11:46:22;2.05;;;1.92;;
13311;SDS011;34033;48.672;9.376;2023-06-10T11:48:51;2.15;;;2.05;;
13311;SDS011;34033;48.672;9.376;2023-06-10T11:51:18;2.28;;;2.10;;
13311;SDS011;34033;48.672;9.376;2023-06-10T11:53:44;2.70;;;2.50;;
13311;SDS011;34033;48.672;9.376;2023-06-10T11:56:10;2.30;;;2.20;;
13311;SDS011;34033;48.672;9.376;2023-06-10T11:58:35;2.42;;;2.22;;
13311;SDS011;34033;48.672;9.376;2023-06-10T12:01:01;2.13;;;2.00;;
13311;SDS011;34033;48.672;9.376;2023-06-10T12:03:26;2.40;;;2.30;;
13311;SDS011;34033;48.672;9.376;2023-06-10T12:06:03;2.40;;;2.30;;
13311;SDS011;34033;48.672;9.376;2023-06-10T12:08:30;2.20;;;2.10;;
13311;SDS011;34033;48.672;9.376;2023-06-10T12:10:56;2.22;;;2.00;;
13311;SDS011;34033;48.672;9.376;2023-06-10T12:13:22;2.30;;;2.20;;
13311;SDS011;34033;48.672;9.376;2023-06-10T12:15:49;2.17;;;2.08;;
13311;SDS011;34033;48.672;9.376;2023-06-10T12:18:21;2.50;;;2.30;;
13311;SDS011;34033;48.672;9.376;2023-06-10T12:20:48;2.78;;;2.58;;
13311;SDS011;34033;48.672;9.376;2023-06-10T12:23:14;2.45;;;2.28;;
13311;SDS011;34033;48.672;9.376;2023-06-10T12:25:49;2.20;;;2.10;;
13311;SDS011;34033;48.672;9.376;2023-06-10T12:28:16;2.10;;;2.00;;
13311;SDS011;34033;48.672;9.376;2023-06-10T12:30:42;2.55;;;2.38;;
13311;SDS011;34033;48.672;9.376;2023-06-10T12:33:15;1.98;;;1.88;;
13311;SDS011;34033;48.672;9.376;2023-06-10T12:35:52;1.90;;;1.80;;
13311;SDS011;34033;48.672;9.376;2023-06-10T12:38:21;2.08;;;1.95;;
13311;SDS011;34033;48.672;9.376;2023-06-10T12:40:49;1.88;;;1.77;;
13311;SDS011;34033;48.672;9.376;2023-06-10T12:43:21;3.25;;;1.80;;
13311;SDS011;34033;48.672;9.376;2023-06-10T12:45:47;2.03;;;1.92;;
13311;SDS011;34033;48.672;9.376;2023-06-10T12:48:23;1.92;;;1.83;;
13311;SDS011;34033;48.672;9.376;2023-06-10T12:53:22;2.10;;;2.00;;
13311;SDS011;34033;48.672;9.376;2023-06-10T12:55:48;2.20;;;2.10;;
13311;SDS011;34033;48.672;9.376;2023-06-10T12:58:14;2.22;;;2.13;;
13311;SDS011;34033;48.672;9.376;2023-06-10T13:00:39;1.90;;;1.80;;
13311;SDS011;34033;48.672;9.376;2023-06-10T13:03:07;2.00;;;1.90;;
13311;SDS011;34033;48.672;9.376;2023-06-10T13:05:34;2.90;;;1.95;;
13311;SDS011;34033;48.672;9.376;2023-06-10T13:08:03;2.10;;;2.00;;
13311;SDS011;34033;48.672;9.376;2023-06-10T13:10:30;2.10;;;2.00;;
13311;SDS011;34033;48.672;9.376;2023-06-10T13:12:55;2.00;;;1.90;;
13311;SDS011;34033;48.672;9.376;2023-06-10T13:15:21;2.10;;;2.00;;
13311;SDS011;34033;48.672;9.376;2023-06-10T13:17:47;2.40;;;2.30;;
13311;SDS011;34033;48.672;9.376;2023-06-10T13:20:15;2.10;;;2.00;;
13311;SDS011;34033;48.672;9.376;2023-06-10T13:22:42;2.00;;;1.90;;
13311;SDS011;34033;48.672;9.376;2023-06-10T13:25:08;2.42;;;2.25;;
13311;SDS011;34033;48.672;9.376;2023-06-10T13:27:34;2.28;;;2.17;;
13311;SDS011;34033;48.672;9.376;2023-06-10T13:30:00;2.00;;;1.90;;
13311;SDS011;34033;48.672;9.376;2023-06-10T13:32:26;2.30;;;2.20;;
13311;SDS011;34033;48.672;9.376;2023-06-10T13:34:51;2.60;;;2.40;;
13311;SDS011;34033;48.672;9.376;2023-06-10T13:37:18;2.42;;;2.33;;
13311;SDS011;34033;48.672;9.376;2023-06-10T13:39:44;2.22;;;2.13;;
13311;SDS011;34033;48.672;9.376;2023-06-10T13:42:12;2.30;;;2.20;;
13311;SDS011;34033;48.672;9.376;2023-06-10T13:44:37;2.30;;;2.20;;
13311;SDS011;34033;48.672;9.376;2023-06-10T13:47:02;2.20;;;2.10;;
13311;SDS011;34033;48.672;9.376;2023-06-10T13:49:28;2.83;;;2.30;;
13311;SDS011;34033;48.672;9.376;2023-06-10T13:51:54;2.55;;;2.40;;
13311;SDS011;34033;48.672;9.376;2023-06-10T13:54:19;4.65;;;2.60;;
13311;SDS011;34033;48.672;9.376;2023-06-10T13:56:46;2.53;;;2.33;;
13311;SDS011;34033;48.672;9.376;2023-06-10T13:59:11;3.70;;;2.30;;
13311;SDS011;34033;48.672;9.376;2023-06-10T14:01:37;2.40;;;2.30;;
13311;SDS011;34033;48.672;9.376;2023-06-10T14:04:02;2.30;;;2.10;;
13311;SDS011;34033;48.672;9.376;2023-06-10T14:06:27;3.78;;;2.10;;
13311;SDS011;34033;48.672;9.376;2023-06-10T14:08:53;2.97;;;2.25;;
13311;SDS011;34033;48.672;9.376;2023-06-10T14:11:19;2.22;;;2.08;;
13311;SDS011;34033;48.672;9.376;2023-06-10T14:13:46;2.30;;;2.10;;
13311;SDS011;34033;48.672;9.376;2023-06-10T14:16:11;1.92;;;1.83;;
13311;SDS011;34033;48.672;9.376;2023-06-10T14:18:36;1.85;;;1.75;;
13311;SDS011;34033;48.672;9.376;2023-06-10T14:21:02;2.83;;;1.98;;
13311;SDS011;34033;48.672;9.376;2023-06-10T14:23:27;2.08;;;1.98;;
13311;SDS011;34033;48.672;9.376;2023-06-10T14:25:52;2.58;;;2.35;;
13311;SDS011;34033;48.672;9.376;2023-06-10T14:28:18;2.13;;;2.03;;
13311;SDS011;34033;48.672;9.376;2023-06-10T14:30:43;2.17;;;2.08;;
13311;SDS011;34033;48.672;9.376;2023-06-10T14:33:08;2.30;;;2.20;;
13311;SDS011;34033;48.672;9.376;2023-06-10T14:35:34;2.78;;;2.30;;
13311;SDS011;34033;48.672;9.376;2023-06-10T14:37:59;2.00;;;1.90;;
13311;SDS011;34033;48.672;9.376;2023-06-10T14:40:24;3.35;;;1.90;;
13311;SDS011;34033;48.672;9.376;2023-06-10T14:42:53;2.85;;;1.70;;
13311;SDS011;34033;48.672;9.376;2023-06-10T14:45:19;2.92;;;1.90;;
13311;SDS011;34033;48.672;9.376;2023-06-10T14:47:44;2.00;;;1.90;;
13311;SDS011;34033;48.672;9.376;2023-06-10T14:50:10;1.95;;;1.85;;
13311;SDS011;34033;48.672;9.376;2023-06-10T14:52:35;2.00;;;1.90;;
13311;SDS011;34033;48.672;9.376;2023-06-10T14:55:01;5.50;;;2.10;;
13311;SDS011;34033;48.672;9.376;2023-06-10T14:57:26;2.10;;;2.00;;
13311;SDS011;34033;48.672;9.376;2023-06-10T14:59:51;1.90;;;1.80;;
13311;SDS011;34033;48.672;9.376;2023-06-10T15:02:17;1.90;;;1.80;;
13311;SDS011;34033;48.672;9.376;2023-06-10T15:04:42;1.98;;;1.88;;
13311;SDS011;34033;48.672;9.376;2023-06-10T15:07:07;1.65;;;1.60;;
13311;SDS011;34033;48.672;9.376;2023-06-10T15:09:33;1.88;;;1.77;;